sensor_id;sensor_type;location;lat;lon;timestamp;P1;durP1;ratioP1;P2;durP2;ratioP2
23185;SDS011;11761;51.324;4.590;2023-02-23T00:01:51;135.00;;;48.70;;
23185;SDS011;11761;51.324;4.590;2023-02-23T00:04:17;141.95;;;49.13;;
23185;SDS011;11761;51.324;4.590;2023-02-23T00:06:43;137.57;;;50.55;;
23185;SDS011;11761;51.324;4.590;2023-02-23T00:09:09;129.88;;;50.00;;
23185;SDS011;11761;51.324;4.590;2023-02-23T00:11:58;143.65;;;50.50;;
23185;SDS011;11761;51.324;4.590;2023-02-23T00:14:31;151.57;;;50.50;;
23185;SDS011;11761;51.324;4.590;2023-02-23T00:16:58;146.02;;;49.47;;
23185;SDS011;11761;51.324;4.590;2023-02-23T00:19:24;140.00;;;50.25;;
23185;SDS011;11761;51.324;4.590;2023-02-23T00:21:51;136.05;;;49.25;;
23185;SDS011;11761;51.324;4.590;2023-02-23T00:24:18;152.82;;;50.28;;
23185;SDS011;11761;51.324;4.590;2023-02-23T00:26:45;160.65;;;49.20;;
23185;SDS011;11761;51.324;4.590;2023-02-23T00:29:21;160.18;;;51.30;;
23185;SDS011;11761;51.324;4.590;2023-02-23T00:31:51;143.85;;;50.42;;
23185;SDS011;11761;51.324;4.590;2023-02-23T00:34:18;155.77;;;49.72;;
23185;SDS011;11761;51.324;4.590;2023-02-23T00:36:52;174.48;;;52.30;;
23185;SDS011;11761;51.324;4.590;2023-02-23T00:39:19;158.65;;;50.85;;
23185;SDS011;11761;51.324;4.590;2023-02-23T00:41:48;147.93;;;48.55;;
23185;SDS011;11761;51.324;4.590;2023-02-23T00:44:14;142.18;;;51.55;;
23185;SDS011;11761;51.324;4.590;2023-02-23T00:46:40;151.30;;;49.28;;
23185;SDS011;11761;51.324;4.590;2023-02-23T00:49:08;155.25;;;50.63;;
23185;SDS011;11761;51.324;4.590;2023-02-23T00:51:36;154.48;;;50.28;;
23185;SDS011;11761;51.324;4.590;2023-02-23T00:54:03;142.63;;;48.60;;
23185;SDS011;11761;51.324;4.590;2023-02-23T00:56:30;150.88;;;49.33;;
23185;SDS011;11761;51.324;4.590;2023-02-23T00:58:56;148.32;;;47.67;;
23185;SDS011;11761;51.324;4.590;2023-02-23T01:01:22;152.02;;;49.60;;
23185;SDS011;11761;51.324;4.590;2023-02-23T01:03:49;168.60;;;50.50;;
23185;SDS011;11761;51.324;4.590;2023-02-23T01:06:15;150.18;;;51.20;;
23185;SDS011;11761;51.324;4.590;2023-02-23T01:08:43;154.20;;;50.50;;
23185;SDS011;11761;51.324;4.590;2023-02-23T01:11:12;160.52;;;50.88;;
23185;SDS011;11761;51.324;4.590;2023-02-23T01:13:46;176.00;;;49.20;;
23185;SDS011;11761;51.324;4.590;2023-02-23T01:16:14;177.93;;;50.40;;
23185;SDS011;11761;51.324;4.590;2023-02-23T01:18:41;162.93;;;49.67;;
23185;SDS011;11761;51.324;4.590;2023-02-23T01:23:42;177.15;;;51.65;;
23185;SDS011;11761;51.324;4.590;2023-02-23T01:26:16;190.75;;;51.45;;
23185;SDS011;11761;51.324;4.590;2023-02-23T01:28:47;160.90;;;50.65;;
23185;SDS011;11761;51.324;4.590;2023-02-23T01:31:17;188.10;;;52.05;;
23185;SDS011;11761;51.324;4.590;2023-02-23T01:33:43;221.52;;;51.10;;
23185;SDS011;11761;51.324;4.590;2023-02-23T01:36:10;160.75;;;50.83;;
23185;SDS011;11761;51.324;4.590;2023-02-23T01:38:37;154.43;;;50.75;;
23185;SDS011;11761;51.324;4.590;2023-02-23T01:41:04;184.07;;;50.53;;
23185;SDS011;11761;51.324;4.590;2023-02-23T01:43:31;216.68;;;50.28;;
23185;SDS011;11761;51.324;4.590;2023-02-23T01:45:57;161.52;;;48.63;;
23185;SDS011;11761;51.324;4.590;2023-02-23T01:48:27;207.48;;;51.10;;
23185;SDS011;11761;51.324;4.590;2023-02-23T01:51:10;193.80;;;50.58;;
23185;SDS011;11761;51.324;4.590;2023-02-23T01:53:41;168.43;;;50.78;;
23185;SDS011;11761;51.324;4.590;2023-02-23T01:56:20;191.55;;;48.08;;
23185;SDS011;11761;51.324;4.590;2023-02-23T01:58:50;191.60;;;50.28;;
23185;SDS011;11761;51.324;4.590;2023-02-23T02:01:19;176.55;;;49.20;;
23185;SDS011;11761;51.324;4.590;2023-02-23T02:03:56;173.77;;;50.30;;
23185;SDS011;11761;51.324;4.590;2023-02-23T02:06:25;187.02;;;49.80;;
23185;SDS011;11761;51.324;4.590;2023-02-23T02:09:07;193.55;;;50.50;;
23185;SDS011;11761;51.324;4.590;2023-02-23T02:11:41;181.73;;;48.65;;
23185;SDS011;11761;51.324;4.590;2023-02-23T02:14:10;168.73;;;48.65;;
23185;SDS011;11761;51.324;4.590;2023-02-23T02:16:58;162.98;;;48.28;;
23185;SDS011;11761;51.324;4.590;2023-02-23T02:25:58;203.52;;;48.00;;
23185;SDS011;11761;51.324;4.590;2023-02-23T02:31:20;159.18;;;45.75;;
23185;SDS011;11761;51.324;4.590;2023-02-23T02:40:03;172.30;;;43.47;;
23185;SDS011;11761;51.324;4.590;2023-02-23T02:42:49;160.98;;;41.67;;
23185;SDS011;11761;51.324;4.590;2023-02-23T02:48:27;152.90;;;40.75;;
23185;SDS011;11761;51.324;4.590;2023-02-23T02:51:10;175.15;;;43.17;;
23185;SDS011;11761;51.324;4.590;2023-02-23T02:53:57;137.63;;;40.45;;
23185;SDS011;11761;51.324;4.590;2023-02-23T02:56:31;167.65;;;41.50;;
23185;SDS011;11761;51.324;4.590;2023-02-23T02:59:14;153.32;;;41.63;;
23185;SDS011;11761;51.324;4.590;2023-02-23T03:02:01;168.25;;;41.97;;
23185;SDS011;11761;51.324;4.590;2023-02-23T03:04:47;156.65;;;42.53;;
23185;SDS011;11761;51.324;4.590;2023-02-23T03:07:43;170.82;;;40.92;;
23185;SDS011;11761;51.324;4.590;2023-02-23T03:19:57;155.48;;;42.97;;
23185;SDS011;11761;51.324;4.590;2023-02-23T03:22:59;176.80;;;44.47;;
23185;SDS011;11761;51.324;4.590;2023-02-23T03:29:00;189.50;;;45.45;;
23185;SDS011;11761;51.324;4.590;2023-02-23T03:32:24;196.93;;;44.25;;
23185;SDS011;11761;51.324;4.590;2023-02-23T03:38:01;179.73;;;45.20;;
23185;SDS011;11761;51.324;4.590;2023-02-23T03:41:00;208.35;;;44.75;;
23185;SDS011;11761;51.324;4.590;2023-02-23T03:43:50;214.15;;;45.63;;
23185;SDS011;11761;51.324;4.590;2023-02-23T03:46:42;195.85;;;47.63;;
23185;SDS011;11761;51.324;4.590;2023-02-23T03:49:29;179.77;;;45.83;;
23185;SDS011;11761;51.324;4.590;2023-02-23T03:52:21;207.43;;;45.45;;
23185;SDS011;11761;51.324;4.590;2023-02-23T03:55:30;189.55;;;47.15;;
23185;SDS011;11761;51.324;4.590;2023-02-23T03:58:17;258.42;;;47.30;;
23185;SDS011;11761;51.324;4.590;2023-02-23T04:01:08;177.75;;;45.13;;
23185;SDS011;11761;51.324;4.590;2023-02-23T04:03:55;208.85;;;44.75;;
23185;SDS011;11761;51.324;4.590;2023-02-23T04:06:42;235.60;;;46.58;;
23185;SDS011;11761;51.324;4.590;2023-02-23T04:09:29;183.98;;;45.20;;
23185;SDS011;11761;51.324;4.590;2023-02-23T04:12:25;191.75;;;45.38;;
23185;SDS011;11761;51.324;4.590;2023-02-23T04:17:54;185.93;;;45.25;;
23185;SDS011;11761;51.324;4.590;2023-02-23T04:20:20;172.95;;;45.30;;
23185;SDS011;11761;51.324;4.590;2023-02-23T04:22:46;165.88;;;46.45;;
23185;SDS011;11761;51.324;4.590;2023-02-23T04:25:13;188.52;;;46.92;;
23185;SDS011;11761;51.324;4.590;2023-02-23T04:27:40;183.88;;;43.83;;
23185;SDS011;11761;51.324;4.590;2023-02-23T04:30:06;238.27;;;45.70;;
23185;SDS011;11761;51.324;4.590;2023-02-23T04:32:35;253.85;;;48.05;;
23185;SDS011;11761;51.324;4.590;2023-02-23T04:35:02;270.77;;;47.17;;
23185;SDS011;11761;51.324;4.590;2023-02-23T04:37:28;342.98;;;51.50;;
23185;SDS011;11761;51.324;4.590;2023-02-23T04:39:54;241.90;;;49.38;;
23185;SDS011;11761;51.324;4.590;2023-02-23T04:42:20;234.65;;;47.35;;
23185;SDS011;11761;51.324;4.590;2023-02-23T04:44:46;234.07;;;48.83;;
23185;SDS011;11761;51.324;4.590;2023-02-23T04:47:15;247.73;;;49.83;;
23185;SDS011;11761;51.324;4.590;2023-02-23T04:49:42;275.42;;;50.00;;
23185;SDS011;11761;51.324;4.590;2023-02-23T04:52:08;277.17;;;48.15;;
23185;SDS011;11761;51.324;4.590;2023-02-23T04:54:37;293.90;;;49.53;;
23185;SDS011;11761;51.324;4.590;2023-02-23T04:57:04;190.63;;;48.22;;
23185;SDS011;11761;51.324;4.590;2023-02-23T04:59:30;234.52;;;50.65;;
23185;SDS011;11761;51.324;4.590;2023-02-23T05:01:56;202.65;;;47.88;;
23185;SDS011;11761;51.324;4.590;2023-02-23T05:04:22;205.25;;;46.55;;
23185;SDS011;11761;51.324;4.590;2023-02-23T05:06:49;208.18;;;48.20;;
23185;SDS011;11761;51.324;4.590;2023-02-23T05:09:15;231.88;;;48.13;;
23185;SDS011;11761;51.324;4.590;2023-02-23T05:11:41;225.10;;;48.83;;
23185;SDS011;11761;51.324;4.590;2023-02-23T05:14:07;234.38;;;47.33;;
23185;SDS011;11761;51.324;4.590;2023-02-23T05:16:34;246.85;;;50.45;;
23185;SDS011;11761;51.324;4.590;2023-02-23T05:19:00;226.80;;;50.55;;
23185;SDS011;11761;51.324;4.590;2023-02-23T05:21:26;222.00;;;48.08;;
23185;SDS011;11761;51.324;4.590;2023-02-23T05:23:52;223.35;;;47.47;;
23185;SDS011;11761;51.324;4.590;2023-02-23T05:26:18;206.15;;;48.03;;
23185;SDS011;11761;51.324;4.590;2023-02-23T05:28:44;266.75;;;48.63;;
23185;SDS011;11761;51.324;4.590;2023-02-23T05:31:10;202.57;;;48.10;;
23185;SDS011;11761;51.324;4.590;2023-02-23T05:33:36;223.93;;;50.53;;
23185;SDS011;11761;51.324;4.590;2023-02-23T05:36:10;223.20;;;49.15;;
23185;SDS011;11761;51.324;4.590;2023-02-23T05:38:38;244.43;;;48.88;;
23185;SDS011;11761;51.324;4.590;2023-02-23T05:41:06;244.25;;;51.22;;
23185;SDS011;11761;51.324;4.590;2023-02-23T05:43:50;239.50;;;49.67;;
23185;SDS011;11761;51.324;4.590;2023-02-23T05:46:23;212.88;;;49.72;;
23185;SDS011;11761;51.324;4.590;2023-02-23T05:48:54;226.25;;;48.33;;
23185;SDS011;11761;51.324;4.590;2023-02-23T05:51:23;223.18;;;49.13;;
23185;SDS011;11761;51.324;4.590;2023-02-23T05:53:50;261.13;;;49.22;;
23185;SDS011;11761;51.324;4.590;2023-02-23T05:56:16;237.45;;;50.35;;
23185;SDS011;11761;51.324;4.590;2023-02-23T05:58:48;203.88;;;48.28;;
23185;SDS011;11761;51.324;4.590;2023-02-23T06:01:15;207.25;;;49.25;;
23185;SDS011;11761;51.324;4.590;2023-02-23T06:03:42;255.82;;;51.13;;
23185;SDS011;11761;51.324;4.590;2023-02-23T06:06:09;227.48;;;49.35;;
23185;SDS011;11761;51.324;4.590;2023-02-23T06:08:36;221.43;;;50.10;;
23185;SDS011;11761;51.324;4.590;2023-02-23T06:11:02;241.45;;;48.92;;
23185;SDS011;11761;51.324;4.590;2023-02-23T06:13:28;215.48;;;47.42;;
23185;SDS011;11761;51.324;4.590;2023-02-23T06:15:56;196.63;;;46.65;;
23185;SDS011;11761;51.324;4.590;2023-02-23T06:18:24;187.65;;;47.35;;
23185;SDS011;11761;51.324;4.590;2023-02-23T06:20:50;173.93;;;46.33;;
23185;SDS011;11761;51.324;4.590;2023-02-23T06:23:16;160.75;;;46.20;;
23185;SDS011;11761;51.324;4.590;2023-02-23T06:25:43;193.30;;;48.15;;
23185;SDS011;11761;51.324;4.590;2023-02-23T06:28:10;221.13;;;46.85;;
23185;SDS011;11761;51.324;4.590;2023-02-23T06:30:37;189.38;;;45.08;;
23185;SDS011;11761;51.324;4.590;2023-02-23T06:33:03;252.65;;;52.35;;
23185;SDS011;11761;51.324;4.590;2023-02-23T06:35:30;246.27;;;51.45;;
23185;SDS011;11761;51.324;4.590;2023-02-23T06:37:57;236.93;;;52.35;;
23185;SDS011;11761;51.324;4.590;2023-02-23T06:40:23;241.07;;;52.53;;
23185;SDS011;11761;51.324;4.590;2023-02-23T06:42:49;237.38;;;52.90;;
23185;SDS011;11761;51.324;4.590;2023-02-23T06:45:16;251.30;;;53.72;;
23185;SDS011;11761;51.324;4.590;2023-02-23T06:47:43;235.60;;;50.90;;
23185;SDS011;11761;51.324;4.590;2023-02-23T06:50:10;264.20;;;51.28;;
23185;SDS011;11761;51.324;4.590;2023-02-23T06:52:37;258.10;;;52.80;;
23185;SDS011;11761;51.324;4.590;2023-02-23T06:55:03;308.08;;;56.05;;
23185;SDS011;11761;51.324;4.590;2023-02-23T06:57:29;263.40;;;53.38;;
23185;SDS011;11761;51.324;4.590;2023-02-23T06:59:55;309.02;;;53.28;;
23185;SDS011;11761;51.324;4.590;2023-02-23T07:02:21;227.32;;;50.85;;
23185;SDS011;11761;51.324;4.590;2023-02-23T07:04:47;215.98;;;48.28;;
23185;SDS011;11761;51.324;4.590;2023-02-23T07:07:13;283.55;;;54.83;;
23185;SDS011;11761;51.324;4.590;2023-02-23T07:09:40;213.60;;;52.10;;
23185;SDS011;11761;51.324;4.590;2023-02-23T07:12:07;286.00;;;55.95;;
23185;SDS011;11761;51.324;4.590;2023-02-23T07:14:34;252.85;;;53.30;;
23185;SDS011;11761;51.324;4.590;2023-02-23T07:17:02;281.50;;;52.90;;
23185;SDS011;11761;51.324;4.590;2023-02-23T07:19:29;264.90;;;52.28;;
23185;SDS011;11761;51.324;4.590;2023-02-23T07:21:56;244.10;;;53.15;;
23185;SDS011;11761;51.324;4.590;2023-02-23T07:24:22;230.65;;;50.47;;
23185;SDS011;11761;51.324;4.590;2023-02-23T07:26:49;268.17;;;52.95;;
23185;SDS011;11761;51.324;4.590;2023-02-23T07:29:16;211.52;;;51.72;;
23185;SDS011;11761;51.324;4.590;2023-02-23T07:31:42;211.15;;;49.10;;
23185;SDS011;11761;51.324;4.590;2023-02-23T07:34:08;254.85;;;50.47;;
23185;SDS011;11761;51.324;4.590;2023-02-23T07:36:35;222.02;;;50.35;;
23185;SDS011;11761;51.324;4.590;2023-02-23T07:39:02;193.65;;;47.45;;
23185;SDS011;11761;51.324;4.590;2023-02-23T07:41:29;178.50;;;47.38;;
23185;SDS011;11761;51.324;4.590;2023-02-23T07:43:56;206.35;;;48.08;;
23185;SDS011;11761;51.324;4.590;2023-02-23T07:46:24;171.57;;;46.90;;
23185;SDS011;11761;51.324;4.590;2023-02-23T07:48:50;172.30;;;47.38;;
23185;SDS011;11761;51.324;4.590;2023-02-23T07:51:17;167.38;;;46.17;;
23185;SDS011;11761;51.324;4.590;2023-02-23T07:53:43;180.90;;;46.58;;
23185;SDS011;11761;51.324;4.590;2023-02-23T07:56:10;175.43;;;46.53;;
23185;SDS011;11761;51.324;4.590;2023-02-23T07:58:37;164.15;;;44.83;;
23185;SDS011;11761;51.324;4.590;2023-02-23T08:01:09;150.80;;;43.10;;
23185;SDS011;11761;51.324;4.590;2023-02-23T08:03:36;146.43;;;44.95;;
23185;SDS011;11761;51.324;4.590;2023-02-23T08:06:03;167.27;;;44.47;;
23185;SDS011;11761;51.324;4.590;2023-02-23T08:08:30;152.98;;;42.65;;
23185;SDS011;11761;51.324;4.590;2023-02-23T08:11:00;136.30;;;41.65;;
23185;SDS011;11761;51.324;4.590;2023-02-23T08:13:27;149.00;;;42.05;;
23185;SDS011;11761;51.324;4.590;2023-02-23T08:15:54;121.40;;;42.20;;
23185;SDS011;11761;51.324;4.590;2023-02-23T08:18:20;122.20;;;43.38;;
23185;SDS011;11761;51.324;4.590;2023-02-23T08:20:46;137.20;;;41.88;;
23185;SDS011;11761;51.324;4.590;2023-02-23T08:23:12;118.68;;;42.05;;
23185;SDS011;11761;51.324;4.590;2023-02-23T08:25:38;132.15;;;41.72;;
23185;SDS011;11761;51.324;4.590;2023-02-23T08:28:04;124.43;;;41.25;;
23185;SDS011;11761;51.324;4.590;2023-02-23T08:30:31;122.88;;;42.22;;
23185;SDS011;11761;51.324;4.590;2023-02-23T08:32:58;105.50;;;39.17;;
23185;SDS011;11761;51.324;4.590;2023-02-23T08:35:26;104.25;;;40.00;;
23185;SDS011;11761;51.324;4.590;2023-02-23T08:37:55;109.93;;;38.70;;
23185;SDS011;11761;51.324;4.590;2023-02-23T08:40:22;112.25;;;38.30;;
23185;SDS011;11761;51.324;4.590;2023-02-23T08:42:48;109.38;;;38.28;;
23185;SDS011;11761;51.324;4.590;2023-02-23T08:45:16;110.20;;;38.22;;
23185;SDS011;11761;51.324;4.590;2023-02-23T08:47:44;107.13;;;38.95;;
23185;SDS011;11761;51.324;4.590;2023-02-23T08:50:10;119.35;;;39.22;;
23185;SDS011;11761;51.324;4.590;2023-02-23T08:52:37;117.55;;;38.78;;
23185;SDS011;11761;51.324;4.590;2023-02-23T08:55:04;110.13;;;37.42;;
23185;SDS011;11761;51.324;4.590;2023-02-23T08:57:32;107.47;;;38.55;;
23185;SDS011;11761;51.324;4.590;2023-02-23T09:00:02;115.00;;;39.90;;
23185;SDS011;11761;51.324;4.590;2023-02-23T09:02:42;117.07;;;38.13;;
23185;SDS011;11761;51.324;4.590;2023-02-23T09:05:09;118.75;;;39.70;;
23185;SDS011;11761;51.324;4.590;2023-02-23T09:07:36;107.35;;;38.60;;
23185;SDS011;11761;51.324;4.590;2023-02-23T09:10:03;119.53;;;40.05;;
23185;SDS011;11761;51.324;4.590;2023-02-23T09:12:30;114.03;;;38.70;;
23185;SDS011;11761;51.324;4.590;2023-02-23T09:14:56;115.55;;;38.72;;
23185;SDS011;11761;51.324;4.590;2023-02-23T09:17:22;122.18;;;40.90;;
23185;SDS011;11761;51.324;4.590;2023-02-23T09:19:48;105.65;;;38.50;;
23185;SDS011;11761;51.324;4.590;2023-02-23T09:22:15;112.95;;;38.85;;
23185;SDS011;11761;51.324;4.590;2023-02-23T09:24:43;108.82;;;39.00;;
23185;SDS011;11761;51.324;4.590;2023-02-23T09:27:09;109.85;;;38.45;;
23185;SDS011;11761;51.324;4.590;2023-02-23T09:29:37;105.50;;;39.42;;
23185;SDS011;11761;51.324;4.590;2023-02-23T09:32:07;101.90;;;36.42;;
23185;SDS011;11761;51.324;4.590;2023-02-23T09:34:33;100.40;;;36.53;;
23185;SDS011;11761;51.324;4.590;2023-02-23T09:37:00;92.90;;;36.05;;
23185;SDS011;11761;51.324;4.590;2023-02-23T09:39:27;96.85;;;35.88;;
23185;SDS011;11761;51.324;4.590;2023-02-23T09:44:36;94.28;;;35.65;;
23185;SDS011;11761;51.324;4.590;2023-02-23T09:47:36;91.60;;;35.97;;
23185;SDS011;11761;51.324;4.590;2023-02-23T09:50:17;96.00;;;36.13;;
23185;SDS011;11761;51.324;4.590;2023-02-23T09:52:48;96.88;;;36.65;;
23185;SDS011;11761;51.324;4.590;2023-02-23T09:55:19;94.43;;;38.10;;
23185;SDS011;11761;51.324;4.590;2023-02-23T09:57:46;90.15;;;35.08;;
23185;SDS011;11761;51.324;4.590;2023-02-23T10:00:17;83.72;;;34.92;;
23185;SDS011;11761;51.324;4.590;2023-02-23T10:05:34;79.07;;;35.05;;
23185;SDS011;11761;51.324;4.590;2023-02-23T10:08:06;75.70;;;33.95;;
23185;SDS011;11761;51.324;4.590;2023-02-23T10:10:42;89.90;;;36.92;;
23185;SDS011;11761;51.324;4.590;2023-02-23T10:13:20;86.57;;;35.83;;
23185;SDS011;11761;51.324;4.590;2023-02-23T10:16:18;82.95;;;35.85;;
23185;SDS011;11761;51.324;4.590;2023-02-23T10:18:57;84.03;;;36.35;;
23185;SDS011;11761;51.324;4.590;2023-02-23T10:21:38;87.00;;;36.10;;
23185;SDS011;11761;51.324;4.590;2023-02-23T10:26:51;82.70;;;36.90;;
23185;SDS011;11761;51.324;4.590;2023-02-23T10:29:30;82.75;;;36.47;;
23185;SDS011;11761;51.324;4.590;2023-02-23T10:32:01;69.38;;;27.00;;
23185;SDS011;11761;51.324;4.590;2023-02-23T10:34:32;67.50;;;25.35;;
23185;SDS011;11761;51.324;4.590;2023-02-23T10:37:01;61.92;;;25.88;;
23185;SDS011;11761;51.324;4.590;2023-02-23T10:39:29;57.83;;;23.80;;
23185;SDS011;11761;51.324;4.590;2023-02-23T10:41:57;56.67;;;23.60;;
23185;SDS011;11761;51.324;4.590;2023-02-23T10:44:27;58.80;;;23.75;;
23185;SDS011;11761;51.324;4.590;2023-02-23T10:46:56;52.30;;;23.27;;
23185;SDS011;11761;51.324;4.590;2023-02-23T10:49:28;48.75;;;20.98;;
23185;SDS011;11761;51.324;4.590;2023-02-23T10:52:03;51.90;;;21.98;;
23185;SDS011;11761;51.324;4.590;2023-02-23T10:54:39;48.35;;;20.70;;
23185;SDS011;11761;51.324;4.590;2023-02-23T10:57:18;42.78;;;19.52;;
23185;SDS011;11761;51.324;4.590;2023-02-23T11:02:41;41.17;;;18.65;;
23185;SDS011;11761;51.324;4.590;2023-02-23T11:05:25;44.67;;;20.25;;
23185;SDS011;11761;51.324;4.590;2023-02-23T11:08:25;41.83;;;18.35;;
23185;SDS011;11761;51.324;4.590;2023-02-23T11:13:22;42.55;;;17.17;;
23185;SDS011;11761;51.324;4.590;2023-02-23T11:16:00;39.88;;;18.48;;
23185;SDS011;11761;51.324;4.590;2023-02-23T11:18:30;41.33;;;18.63;;
23185;SDS011;11761;51.324;4.590;2023-02-23T11:20:56;37.70;;;17.40;;
23185;SDS011;11761;51.324;4.590;2023-02-23T11:23:23;38.00;;;18.30;;
23185;SDS011;11761;51.324;4.590;2023-02-23T11:26:02;32.67;;;15.93;;
23185;SDS011;11761;51.324;4.590;2023-02-23T11:28:41;35.50;;;16.83;;
23185;SDS011;11761;51.324;4.590;2023-02-23T11:31:13;35.60;;;16.80;;
23185;SDS011;11761;51.324;4.590;2023-02-23T11:33:41;32.80;;;16.75;;
23185;SDS011;11761;51.324;4.590;2023-02-23T11:36:12;37.40;;;17.02;;
23185;SDS011;11761;51.324;4.590;2023-02-23T11:38:43;37.33;;;17.25;;
23185;SDS011;11761;51.324;4.590;2023-02-23T11:41:17;32.95;;;16.55;;
23185;SDS011;11761;51.324;4.590;2023-02-23T11:43:50;34.47;;;16.92;;
23185;SDS011;11761;51.324;4.590;2023-02-23T11:46:21;33.60;;;16.52;;
23185;SDS011;11761;51.324;4.590;2023-02-23T11:48:48;33.25;;;17.42;;
23185;SDS011;11761;51.324;4.590;2023-02-23T11:51:29;34.78;;;16.52;;
23185;SDS011;11761;51.324;4.590;2023-02-23T11:53:57;33.10;;;16.30;;
23185;SDS011;11761;51.324;4.590;2023-02-23T11:56:25;33.88;;;16.83;;
23185;SDS011;11761;51.324;4.590;2023-02-23T11:59:36;31.92;;;16.08;;
23185;SDS011;11761;51.324;4.590;2023-02-23T12:01:45;35.60;;;18.73;;
23185;SDS011;11761;51.324;4.590;2023-02-23T12:10:18;36.28;;;18.67;;
23185;SDS011;11761;51.324;4.590;2023-02-23T12:18:07;34.50;;;17.42;;
23185;SDS011;11761;51.324;4.590;2023-02-23T12:20:42;35.90;;;18.10;;
23185;SDS011;11761;51.324;4.590;2023-02-23T12:23:14;34.88;;;17.73;;
23185;SDS011;11761;51.324;4.590;2023-02-23T12:28:13;32.65;;;15.75;;
23185;SDS011;11761;51.324;4.590;2023-02-23T12:31:01;32.47;;;16.45;;
23185;SDS011;11761;51.324;4.590;2023-02-23T12:33:52;30.52;;;15.98;;
23185;SDS011;11761;51.324;4.590;2023-02-23T12:38:59;30.05;;;15.70;;
23185;SDS011;11761;51.324;4.590;2023-02-23T12:47:01;23.55;;;14.68;;
23185;SDS011;11761;51.324;4.590;2023-02-23T12:52:03;26.15;;;15.35;;
23185;SDS011;11761;51.324;4.590;2023-02-23T12:54:35;26.42;;;15.57;;
23185;SDS011;11761;51.324;4.590;2023-02-23T12:57:11;25.63;;;14.60;;
23185;SDS011;11761;51.324;4.590;2023-02-23T13:02:28;19.13;;;11.63;;
23185;SDS011;11761;51.324;4.590;2023-02-23T13:05:29;19.00;;;11.23;;
23185;SDS011;11761;51.324;4.590;2023-02-23T13:10:50;14.20;;;9.23;;
23185;SDS011;11761;51.324;4.590;2023-02-23T13:13:30;18.52;;;10.43;;
23185;SDS011;11761;51.324;4.590;2023-02-23T13:16:23;15.90;;;10.05;;
23185;SDS011;11761;51.324;4.590;2023-02-23T13:24:39;14.95;;;10.65;;
23185;SDS011;11761;51.324;4.590;2023-02-23T13:29:59;14.07;;;9.98;;
23185;SDS011;11761;51.324;4.590;2023-02-23T13:32:26;12.05;;;8.63;;
23185;SDS011;11761;51.324;4.590;2023-02-23T13:34:57;14.70;;;9.40;;
23185;SDS011;11761;51.324;4.590;2023-02-23T13:37:28;11.88;;;8.57;;
23185;SDS011;11761;51.324;4.590;2023-02-23T13:43:01;10.48;;;7.75;;
23185;SDS011;11761;51.324;4.590;2023-02-23T13:53:58;11.50;;;8.10;;
23185;SDS011;11761;51.324;4.590;2023-02-23T13:59:40;12.35;;;6.45;;
23185;SDS011;11761;51.324;4.590;2023-02-23T14:04:48;13.00;;;7.30;;
23185;SDS011;11761;51.324;4.590;2023-02-23T14:07:25;12.90;;;6.85;;
23185;SDS011;11761;51.324;4.590;2023-02-23T14:09:58;16.70;;;7.53;;
23185;SDS011;11761;51.324;4.590;2023-02-23T14:12:33;14.40;;;7.30;;
23185;SDS011;11761;51.324;4.590;2023-02-23T14:17:56;13.25;;;6.97;;
23185;SDS011;11761;51.324;4.590;2023-02-23T14:23:29;13.25;;;5.68;;
23185;SDS011;11761;51.324;4.590;2023-02-23T14:26:15;11.07;;;5.35;;
23185;SDS011;11761;51.324;4.590;2023-02-23T14:34:41;9.20;;;4.10;;
23185;SDS011;11761;51.324;4.590;2023-02-23T14:37:52;7.97;;;3.90;;
23185;SDS011;11761;51.324;4.590;2023-02-23T14:40:11;9.65;;;3.95;;
23185;SDS011;11761;51.324;4.590;2023-02-23T14:42:39;9.70;;;4.07;;
23185;SDS011;11761;51.324;4.590;2023-02-23T14:45:15;8.60;;;4.60;;
23185;SDS011;11761;51.324;4.590;2023-02-23T14:47:45;5.57;;;3.55;;
23185;SDS011;11761;51.324;4.590;2023-02-23T14:50:17;8.00;;;4.18;;
23185;SDS011;11761;51.324;4.590;2023-02-23T14:52:50;7.53;;;3.80;;
23185;SDS011;11761;51.324;4.590;2023-02-23T15:02:54;7.55;;;3.63;;
23185;SDS011;11761;51.324;4.590;2023-02-23T15:05:22;7.53;;;3.50;;
23185;SDS011;11761;51.324;4.590;2023-02-23T15:12:57;7.40;;;3.75;;
23185;SDS011;11761;51.324;4.590;2023-02-23T15:15:25;9.35;;;4.38;;
23185;SDS011;11761;51.324;4.590;2023-02-23T15:17:54;8.40;;;4.38;;
23185;SDS011;11761;51.324;4.590;2023-02-23T15:20:23;10.13;;;3.85;;
23185;SDS011;11761;51.324;4.590;2023-02-23T15:22:57;9.13;;;3.97;;
23185;SDS011;11761;51.324;4.590;2023-02-23T15:25:39;7.93;;;4.07;;
23185;SDS011;11761;51.324;4.590;2023-02-23T15:28:09;9.23;;;4.22;;
23185;SDS011;11761;51.324;4.590;2023-02-23T15:30:44;7.80;;;4.22;;
23185;SDS011;11761;51.324;4.590;2023-02-23T15:33:12;8.35;;;4.13;;
23185;SDS011;11761;51.324;4.590;2023-02-23T15:35:45;9.20;;;4.72;;
23185;SDS011;11761;51.324;4.590;2023-02-23T15:38:24;7.65;;;4.55;;
23185;SDS011;11761;51.324;4.590;2023-02-23T15:40:56;7.90;;;4.32;;
23185;SDS011;11761;51.324;4.590;2023-02-23T15:45:55;9.20;;;4.32;;
23185;SDS011;11761;51.324;4.590;2023-02-23T15:48:25;7.97;;;3.80;;
23185;SDS011;11761;51.324;4.590;2023-02-23T15:51:05;6.78;;;3.70;;
23185;SDS011;11761;51.324;4.590;2023-02-23T15:53:32;9.80;;;4.65;;
23185;SDS011;11761;51.324;4.590;2023-02-23T15:56:12;9.20;;;4.80;;
23185;SDS011;11761;51.324;4.590;2023-02-23T15:58:48;7.75;;;4.05;;
23185;SDS011;11761;51.324;4.590;2023-02-23T16:01:25;7.07;;;3.80;;
23185;SDS011;11761;51.324;4.590;2023-02-23T16:04:06;8.82;;;3.80;;
23185;SDS011;11761;51.324;4.590;2023-02-23T16:06:33;8.57;;;3.70;;
23185;SDS011;11761;51.324;4.590;2023-02-23T16:09:13;9.52;;;4.00;;
23185;SDS011;11761;51.324;4.590;2023-02-23T16:11:49;6.85;;;3.45;;
23185;SDS011;11761;51.324;4.590;2023-02-23T16:14:18;10.13;;;4.70;;
23185;SDS011;11761;51.324;4.590;2023-02-23T16:16:47;10.48;;;3.80;;
23185;SDS011;11761;51.324;4.590;2023-02-23T16:19:15;8.75;;;3.83;;
23185;SDS011;11761;51.324;4.590;2023-02-23T16:21:50;139.38;;;12.98;;
23185;SDS011;11761;51.324;4.590;2023-02-23T16:24:18;9.50;;;3.50;;
23185;SDS011;11761;51.324;4.590;2023-02-23T16:26:49;9.32;;;4.47;;
23185;SDS011;11761;51.324;4.590;2023-02-23T16:31:55;7.32;;;3.38;;
23185;SDS011;11761;51.324;4.590;2023-02-23T16:34:31;10.57;;;3.60;;
23185;SDS011;11761;51.324;4.590;2023-02-23T16:37:02;7.72;;;3.22;;
23185;SDS011;11761;51.324;4.590;2023-02-23T16:39:40;8.15;;;3.63;;
23185;SDS011;11761;51.324;4.590;2023-02-23T16:42:08;8.23;;;3.90;;
23185;SDS011;11761;51.324;4.590;2023-02-23T16:44:56;5.43;;;3.13;;
23185;SDS011;11761;51.324;4.590;2023-02-23T16:50:01;8.88;;;3.90;;
23185;SDS011;11761;51.324;4.590;2023-02-23T16:52:46;9.75;;;4.10;;
23185;SDS011;11761;51.324;4.590;2023-02-23T16:55:16;14.00;;;4.07;;
23185;SDS011;11761;51.324;4.590;2023-02-23T16:57:47;8.73;;;3.75;;
23185;SDS011;11761;51.324;4.590;2023-02-23T17:00:26;7.93;;;3.75;;
23185;SDS011;11761;51.324;4.590;2023-02-23T17:02:57;8.05;;;3.85;;
23185;SDS011;11761;51.324;4.590;2023-02-23T17:05:25;9.00;;;4.00;;
23185;SDS011;11761;51.324;4.590;2023-02-23T17:07:52;10.13;;;5.43;;